Time;durP1;ratioP1;P1;durP2;ratioP2;P2;SDS_P1;SDS_P2;PMS_P1;PMS_P2;Temp;Humidity;BMP_temperature;BMP_pressure;BME280_temperature;BME280_humidity;BME280_pressure;Samples;Min_cycle;Max_cycle;Signal;HPM_P1;HPM_P2
2024/01/28 00:02:25;;;;;;;3.03;1.20;;;3.00;99.90;;;;;;5081067;28;20435;-61
2024/01/28 00:04:52;;;;;;;2.35;1.40;;;3.10;99.90;;;;;;5078783;28;20435;-61
2024/01/28 00:07:21;;;;;;;4.70;1.90;;;3.10;99.90;;;;;;5080616;28;20519;-61
2024/01/28 00:09:48;;;;;;;4.45;1.80;;;3.20;99.90;;;;;;5078282;28;20451;-61
2024/01/28 00:12:15;;;;;;;2.92;1.70;;;3.20;99.90;;;;;;5071499;28;20836;-60
2024/01/28 00:14:42;;;;;;;6.43;1.83;;;3.20;31.40;;;;;;5072616;28;20817;-60
2024/01/28 00:17:09;;;;;;;2.70;1.90;;;3.20;1.00;;;;;;5083940;28;20414;-58
2024/01/28 00:19:40;;;;;;;2.90;1.50;;;3.20;99.90;;;;;;5070617;28;20434;-58
2024/01/28 00:22:07;;;;;;;3.10;1.70;;;3.20;99.90;;;;;;5082377;28;20435;-60
2024/01/28 00:24:35;;;;;;;3.92;2.00;;;3.30;99.90;;;;;;5092277;28;20421;-59
2024/01/28 00:27:02;;;;;;;5.43;1.80;;;3.20;1.00;;;;;;5087782;28;20704;-61
2024/01/28 00:29:29;;;;;;;3.67;1.58;;;3.10;1.00;;;;;;5092921;28;20716;-61
2024/01/28 00:32:02;;;;;;;4.53;1.77;;;3.00;1.00;;;;;;5092636;28;20528;-61
2024/01/28 00:34:29;;;;;;;3.72;1.48;;;2.90;1.00;;;;;;5089813;28;20436;-60
2024/01/28 00:36:56;;;;;;;3.53;1.75;;;2.80;1.00;;;;;;5086949;28;20439;-61
2024/01/28 00:39:24;;;;;;;3.38;1.60;;;2.80;99.90;;;;;;5080396;28;20429;-60
2024/01/28 00:41:53;;;;;;;3.75;1.63;;;2.80;1.00;;;;;;5083356;28;20424;-60
2024/01/28 00:44:20;;;;;;;4.32;1.75;;;2.80;1.00;;;;;;5079079;28;20469;-59
2024/01/28 00:46:47;;;;;;;3.33;1.70;;;2.80;1.00;;;;;;5079908;28;20489;-60
2024/01/28 00:49:14;;;;;;;2.13;1.27;;;2.70;1.00;;;;;;5079777;28;20495;-59
2024/01/28 00:51:41;;;;;;;3.65;1.58;;;2.70;1.00;;;;;;5082767;28;20454;-59
2024/01/28 00:54:08;;;;;;;3.40;1.40;;;2.60;1.00;;;;;;5083253;28;20422;-60
2024/01/28 00:56:35;;;;;;;5.22;1.48;;;2.70;1.00;;;;;;5078823;28;20515;-61
2024/01/28 00:59:04;;;;;;;3.70;1.50;;;2.70;1.00;;;;;;5084155;28;20421;-59
2024/01/28 01:01:31;;;;;;;4.43;1.40;;;2.70;1.00;;;;;;5079247;28;20420;-59
2024/01/28 01:03:59;;;;;;;2.83;1.40;;;2.70;1.00;;;;;;5078882;28;20488;-60
2024/01/28 01:06:26;;;;;;;4.30;1.40;;;2.70;1.00;;;;;;5081031;28;20746;-60
2024/01/28 01:08:53;;;;;;;2.80;1.38;;;2.70;1.00;;;;;;5081678;28;20991;-60
2024/01/28 01:11:20;;;;;;;4.55;1.60;;;2.70;99.90;;;;;;5080745;28;20430;-60
2024/01/28 01:13:48;;;;;;;4.00;1.70;;;2.60;1.00;;;;;;5080654;28;20768;-61
2024/01/28 01:16:17;;;;;;;2.53;1.40;;;2.70;1.00;;;;;;5077790;28;20596;-61
2024/01/28 01:18:44;;;;;;;2.63;1.40;;;2.70;1.00;;;;;;5081346;28;20421;-60
2024/01/28 01:21:11;;;;;;;4.70;1.70;;;2.70;1.00;;;;;;5082342;28;20749;-60
2024/01/28 01:23:38;;;;;;;4.95;1.65;;;2.80;1.00;;;;;;5082447;28;20426;-59
2024/01/28 01:26:05;;;;;;;3.85;1.30;;;2.80;1.00;;;;;;5081028;28;20484;-59
2024/01/28 01:28:33;;;;;;;3.35;1.40;;;2.80;1.00;;;;;;5081594;28;20446;-59
2024/01/28 01:31:01;;;;;;;5.60;1.30;;;2.90;1.00;;;;;;5080499;28;20436;-60
2024/01/28 01:33:29;;;;;;;2.53;1.17;;;2.90;1.00;;;;;;5083372;28;20729;-60
2024/01/28 01:35:56;;;;;;;4.57;1.30;;;2.80;1.00;;;;;;5080802;28;20449;-59
2024/01/28 01:38:24;;;;;;;3.88;1.50;;;2.80;1.00;;;;;;5082761;28;20433;-59
2024/01/28 01:40:51;;;;;;;3.58;1.30;;;2.70;1.00;;;;;;5081310;28;20492;-59
2024/01/28 01:43:17;;;;;;;3.78;1.50;;;2.70;1.00;;;;;;5078934;28;20488;-59
2024/01/28 01:45:45;;;;;;;3.73;1.40;;;2.70;1.00;;;;;;5081321;28;20481;-59
2024/01/28 01:48:13;;;;;;;4.38;1.42;;;2.60;1.00;;;;;;5079176;28;20534;-59
2024/01/28 01:50:42;;;;;;;4.20;1.30;;;2.70;1.00;;;;;;5081375;28;20419;-59
2024/01/28 01:53:10;;;;;;;2.75;1.20;;;2.60;1.00;;;;;;5084650;28;20728;-59
2024/01/28 01:55:39;;;;;;;3.78;1.30;;;2.60;1.00;;;;;;5084105;28;20425;-59
2024/01/28 01:58:07;;;;;;;3.20;1.40;;;2.60;1.00;;;;;;5082972;28;20432;-60
2024/01/28 02:00:35;;;;;;;2.33;1.20;;;2.60;1.00;;;;;;5082869;28;20417;-59
2024/01/28 02:03:03;;;;;;;2.70;1.20;;;2.70;1.00;;;;;;5086060;28;20500;-59
2024/01/28 02:05:30;;;;;;;4.53;1.40;;;2.80;1.00;;;;;;5085737;28;20433;-59
2024/01/28 02:07:58;;;;;;;2.93;1.30;;;2.80;1.00;;;;;;5085765;28;20428;-60
2024/01/28 02:10:25;;;;;;;2.92;1.27;;;2.70;1.00;;;;;;5082936;28;20429;-59
2024/01/28 02:12:53;;;;;;;4.88;1.30;;;2.80;1.00;;;;;;5086371;28;20441;-60
2024/01/28 02:15:20;;;;;;;2.17;1.20;;;2.70;1.00;;;;;;5082315;28;20450;-60
2024/01/28 02:17:47;;;;;;;3.03;1.30;;;2.60;1.00;;;;;;5083485;28;20431;-60
2024/01/28 02:20:17;;;;;;;3.28;1.20;;;2.60;1.00;;;;;;5083917;28;20409;-60
2024/01/28 02:22:44;;;;;;;3.72;1.30;;;2.50;1.00;;;;;;5084897;28;20483;-60
2024/01/28 02:25:12;;;;;;;2.53;1.10;;;2.50;1.00;;;;;;5083444;28;20423;-60
2024/01/28 02:27:40;;;;;;;3.40;1.30;;;2.50;1.00;;;;;;5081903;28;20811;-60
2024/01/28 02:30:08;;;;;;;3.65;1.20;;;2.50;1.00;;;;;;5084804;28;20436;-59
2024/01/28 02:32:36;;;;;;;3.00;1.30;;;2.40;1.00;;;;;;5083998;28;20462;-60
2024/01/28 02:35:03;;;;;;;2.08;1.20;;;2.40;1.00;;;;;;5082962;28;20450;-60
2024/01/28 02:37:30;;;;;;;2.10;1.10;;;2.40;1.00;;;;;;5084587;28;20962;-60
2024/01/28 02:39:57;;;;;;;3.10;1.30;;;2.40;1.00;;;;;;5085003;28;20922;-60
2024/01/28 02:42:26;;;;;;;3.15;1.30;;;2.40;1.00;;;;;;5088936;28;20858;-60
2024/01/28 02:44:53;;;;;;;5.28;1.20;;;2.40;1.00;;;;;;5085342;28;20880;-61
2024/01/28 02:47:20;;;;;;;3.30;1.30;;;2.40;1.00;;;;;;5080690;28;20441;-60
2024/01/28 02:49:47;;;;;;;4.43;1.77;;;2.30;1.00;;;;;;5080347;28;20518;-60
2024/01/28 02:52:14;;;;;;;2.67;1.20;;;2.30;1.00;;;;;;5093133;28;20510;-59
2024/01/28 02:54:41;;;;;;;1.80;1.10;;;2.30;1.00;;;;;;5091314;28;20471;-59
2024/01/28 02:57:08;;;;;;;2.97;1.13;;;2.30;1.00;;;;;;5094746;28;20499;-60
2024/01/28 02:59:37;;;;;;;3.80;1.30;;;2.30;1.00;;;;;;5085509;28;20414;-59
2024/01/28 03:02:04;;;;;;;3.33;1.20;;;2.30;1.00;;;;;;5092592;28;20514;-59
2024/01/28 03:04:35;;;;;;;2.40;1.38;;;2.40;1.00;;;;;;5084466;28;20474;-58
2024/01/28 03:07:02;;;;;;;4.07;1.20;;;2.50;1.00;;;;;;5082600;28;20489;-59
2024/01/28 03:09:30;;;;;;;2.30;1.38;;;2.60;1.00;;;;;;5084814;28;20496;-59
2024/01/28 03:11:57;;;;;;;4.32;1.20;;;2.50;1.00;;;;;;5085741;28;20872;-59
2024/01/28 03:14:24;;;;;;;2.60;1.30;;;2.40;1.00;;;;;;5083766;28;20420;-59
2024/01/28 03:16:52;;;;;;;2.03;1.10;;;2.40;1.00;;;;;;5083154;28;20439;-59
2024/01/28 03:19:19;;;;;;;3.70;1.20;;;2.30;1.00;;;;;;5073514;28;20915;-59
2024/01/28 03:21:48;;;;;;;2.40;1.30;;;2.40;1.00;;;;;;5086834;28;20843;-60
2024/01/28 03:24:15;;;;;;;2.40;1.30;;;2.30;1.00;;;;;;5092945;28;20429;-59
2024/01/28 03:26:41;;;;;;;2.80;1.37;;;2.30;1.00;;;;;;5089523;28;20443;-59
2024/01/28 03:29:08;;;;;;;3.80;1.40;;;2.30;1.00;;;;;;5074832;28;20549;-59
2024/01/28 03:31:36;;;;;;;2.60;1.20;;;2.30;1.00;;;;;;5087131;28;21014;-60
2024/01/28 03:34:05;;;;;;;3.85;1.70;;;2.30;1.00;;;;;;5094942;28;20437;-59
2024/01/28 03:36:32;;;;;;;4.80;1.70;;;2.30;1.00;;;;;;5094350;28;20434;-60
2024/01/28 03:38:59;;;;;;;4.22;1.30;;;2.20;1.00;;;;;;5094326;28;20418;-60
2024/01/28 03:41:26;;;;;;;4.65;1.70;;;2.20;1.00;;;;;;5091718;28;20529;-60
2024/01/28 03:43:53;;;;;;;4.65;1.70;;;2.30;1.00;;;;;;5084177;28;20710;-60
2024/01/28 03:46:20;;;;;;;3.90;1.70;;;2.30;1.00;;;;;;5093674;28;20445;-60
2024/01/28 03:48:47;;;;;;;2.50;1.20;;;2.30;1.00;;;;;;5084593;28;20501;-60
2024/01/28 03:51:16;;;;;;;3.43;1.43;;;2.20;1.00;;;;;;5086803;28;20713;-59
2024/01/28 03:53:43;;;;;;;4.60;1.40;;;2.20;1.00;;;;;;5085486;28;20430;-59
2024/01/28 03:56:10;;;;;;;2.50;1.10;;;2.20;1.00;;;;;;5082124;28;20429;-58
2024/01/28 03:58:37;;;;;;;3.30;1.30;;;2.20;1.00;;;;;;5084942;28;20516;-58
2024/01/28 04:01:08;;;;;;;3.83;1.50;;;2.30;1.00;;;;;;5082099;28;20525;-59
2024/01/28 04:03:37;;;;;;;3.25;1.25;;;2.20;1.00;;;;;;5083930;28;20708;-59
2024/01/28 04:06:05;;;;;;;2.35;1.30;;;2.20;1.00;;;;;;5082473;28;20432;-59
2024/01/28 04:08:37;;;;;;;2.83;1.23;;;2.10;1.00;;;;;;5082297;28;20759;-59
2024/01/28 04:11:05;;;;;;;2.63;1.40;;;2.20;1.00;;;;;;5083421;28;20704;-59
2024/01/28 04:13:32;;;;;;;4.35;1.40;;;2.10;1.00;;;;;;5082030;28;21075;-59
2024/01/28 04:15:59;;;;;;;2.53;1.20;;;2.10;1.00;;;;;;5084026;28;20808;-60
2024/01/28 04:18:26;;;;;;;3.20;1.20;;;2.20;1.00;;;;;;5084848;28;20426;-60
2024/01/28 04:20:53;;;;;;;2.75;1.30;;;2.30;1.00;;;;;;5082693;28;20445;-59
2024/01/28 04:23:21;;;;;;;3.40;1.30;;;2.20;1.00;;;;;;5084629;28;20811;-59
2024/01/28 04:25:50;;;;;;;3.08;1.60;;;2.20;1.00;;;;;;5082248;28;20431;-59
2024/01/28 04:28:23;;;;;;;2.58;1.50;;;2.20;1.00;;;;;;5083539;28;20434;-59
2024/01/28 04:30:51;;;;;;;2.80;1.60;;;2.20;1.00;;;;;;5083772;28;20527;-62
2024/01/28 04:33:22;;;;;;;2.45;1.33;;;2.30;1.00;;;;;;5082005;28;20879;-60
2024/01/28 04:35:49;;;;;;;4.10;1.60;;;2.30;1.00;;;;;;5084498;28;20707;-58
2024/01/28 04:38:16;;;;;;;3.40;1.30;;;2.20;1.00;;;;;;5082012;28;20438;-59
2024/01/28 04:40:44;;;;;;;3.60;1.17;;;2.20;1.00;;;;;;5080464;28;20544;-59
2024/01/28 04:43:12;;;;;;;3.03;1.30;;;2.20;1.00;;;;;;5081538;28;20522;-59
2024/01/28 04:45:39;;;;;;;2.00;1.17;;;2.20;1.00;;;;;;5092078;28;20422;-59
2024/01/28 04:48:07;;;;;;;3.53;1.40;;;2.20;1.00;;;;;;5081431;28;20511;-60
2024/01/28 04:50:34;;;;;;;3.33;1.40;;;2.10;1.00;;;;;;5084557;28;20447;-60
2024/01/28 04:53:01;;;;;;;2.70;1.30;;;2.00;1.00;;;;;;5072830;28;20670;-60
2024/01/28 04:55:28;;;;;;;3.60;1.40;;;2.00;1.00;;;;;;5086615;28;20940;-60
2024/01/28 04:57:55;;;;;;;5.10;1.60;;;1.90;1.00;;;;;;5092203;28;20528;-60
2024/01/28 05:00:24;;;;;;;3.25;1.20;;;1.90;1.00;;;;;;5093249;28;20432;-60
2024/01/28 05:02:51;;;;;;;3.53;1.30;;;1.90;1.00;;;;;;5092111;28;20426;-61
2024/01/28 05:05:18;;;;;;;2.35;1.10;;;2.10;1.00;;;;;;5091099;28;20483;-59
2024/01/28 05:07:45;;;;;;;3.72;1.60;;;2.20;1.00;;;;;;5091169;28;20449;-59
2024/01/28 05:10:12;;;;;;;2.38;1.20;;;2.20;1.00;;;;;;5082735;28;20435;-59
2024/01/28 05:12:39;;;;;;;4.60;1.40;;;2.20;1.00;;;;;;5078616;28;20825;-59
2024/01/28 05:15:09;;;;;;;3.40;1.40;;;2.20;1.00;;;;;;5077492;28;20787;-59
2024/01/28 05:17:38;;;;;;;2.47;1.20;;;2.10;1.00;;;;;;5078535;28;20590;-59
2024/01/28 05:20:08;;;;;;;4.35;1.25;;;2.10;1.00;;;;;;5072084;28;20431;-60
2024/01/28 05:22:36;;;;;;;4.10;1.30;;;2.10;1.00;;;;;;5072903;28;20447;-60
2024/01/28 05:25:03;;;;;;;2.85;1.10;;;2.10;1.00;;;;;;5084164;28;20433;-59
2024/01/28 05:27:31;;;;;;;2.50;1.20;;;1.90;1.00;;;;;;5091131;28;20438;-60
2024/01/28 05:29:58;;;;;;;5.90;1.50;;;1.80;1.00;;;;;;5078917;28;20481;-59
2024/01/28 05:32:26;;;;;;;2.30;1.20;;;1.70;1.00;;;;;;5090929;28;20536;-59
2024/01/28 05:34:56;;;;;;;2.42;1.30;;;1.70;1.00;;;;;;5083611;28;20523;-60
2024/01/28 05:37:23;;;;;;;3.10;1.10;;;1.70;1.00;;;;;;5079599;28;20494;-59
2024/01/28 05:39:51;;;;;;;2.08;1.10;;;1.60;1.00;;;;;;5081104;28;20438;-60
2024/01/28 05:42:18;;;;;;;2.70;1.15;;;1.50;1.00;;;;;;5078611;28;20987;-59
2024/01/28 05:44:45;;;;;;;3.05;1.00;;;1.50;1.00;;;;;;5080403;28;20416;-59
2024/01/28 05:47:18;;;;;;;3.30;1.60;;;1.50;1.00;;;;;;5071662;28;20529;-59
2024/01/28 05:49:45;;;;;;;1.95;1.23;;;1.50;1.00;;;;;;5086702;28;20431;-58
2024/01/28 05:52:14;;;;;;;3.15;1.10;;;1.60;1.00;;;;;;5070606;28;20787;-59
2024/01/28 05:54:42;;;;;;;2.03;1.10;;;1.70;1.00;;;;;;5069363;28;20512;-59
2024/01/28 05:57:09;;;;;;;2.95;1.30;;;1.60;1.00;;;;;;5079917;28;20438;-58
2024/01/28 05:59:37;;;;;;;2.80;1.30;;;1.70;1.00;;;;;;5069650;28;20473;-58
2024/01/28 06:02:04;;;;;;;2.60;1.30;;;1.70;1.00;;;;;;5086975;28;20866;-59
2024/01/28 06:04:32;;;;;;;3.80;1.13;;;1.70;1.00;;;;;;5084965;28;20442;-59
2024/01/28 06:07:00;;;;;;;3.10;1.40;;;1.80;1.00;;;;;;5078352;28;20419;-59
2024/01/28 06:09:28;;;;;;;2.20;1.30;;;1.70;1.00;;;;;;5077884;28;20435;-58
2024/01/28 06:11:56;;;;;;;2.55;1.20;;;1.70;1.00;;;;;;5081956;28;20502;-58
2024/01/28 06:14:24;;;;;;;3.42;1.30;;;1.70;1.00;;;;;;5076578;28;20426;-59
2024/01/28 06:16:51;;;;;;;3.60;1.30;;;1.70;1.00;;;;;;5079402;28;20483;-58
2024/01/28 06:19:18;;;;;;;2.67;1.20;;;1.70;1.00;;;;;;5076244;28;20439;-59
2024/01/28 06:21:45;;;;;;;2.80;1.30;;;1.70;1.00;;;;;;5091486;28;20487;-59
2024/01/28 06:24:12;;;;;;;2.17;1.10;;;1.70;1.00;;;;;;5085014;28;20455;-59
2024/01/28 06:26:40;;;;;;;2.60;1.20;;;1.70;1.00;;;;;;5089460;28;20482;-59
2024/01/28 06:29:08;;;;;;;3.50;1.40;;;1.70;1.00;;;;;;5069204;28;20439;-59
2024/01/28 06:31:35;;;;;;;4.30;1.40;;;1.70;1.00;;;;;;5085880;28;20429;-60
2024/01/28 06:34:02;;;;;;;1.97;1.10;;;1.70;1.00;;;;;;5088194;28;20888;-59
2024/01/28 06:36:29;;;;;;;2.67;1.20;;;1.60;1.00;;;;;;5079904;28;20426;-59
2024/01/28 06:38:57;;;;;;;2.33;1.05;;;1.60;1.00;;;;;;5092719;28;20683;-59
2024/01/28 06:41:24;;;;;;;2.83;1.20;;;1.60;1.00;;;;;;5083083;28;20442;-60
2024/01/28 06:43:53;;;;;;;3.30;1.30;;;1.60;1.00;;;;;;5083726;28;20556;-59
2024/01/28 06:46:20;;;;;;;3.42;1.30;;;1.60;1.00;;;;;;5092318;28;20479;-60
2024/01/28 06:48:47;;;;;;;4.25;1.50;;;1.70;1.00;;;;;;5080987;28;20437;-60
2024/01/28 06:51:14;;;;;;;4.07;1.33;;;1.70;1.00;;;;;;5077933;28;20451;-59
2024/01/28 06:53:41;;;;;;;2.70;1.40;;;1.80;1.00;;;;;;5085584;28;20811;-59
2024/01/28 06:56:08;;;;;;;3.33;1.93;;;1.80;1.00;;;;;;5092858;28;20796;-59
2024/01/28 06:58:36;;;;;;;3.28;1.50;;;1.80;1.00;;;;;;5093524;28;20516;-60
2024/01/28 07:01:05;;;;;;;4.90;1.77;;;1.70;1.00;;;;;;5084560;28;20439;-59
2024/01/28 07:03:32;;;;;;;2.53;1.80;;;1.70;1.00;;;;;;5083894;28;20495;-59
2024/01/28 07:05:59;;;;;;;4.47;1.92;;;1.70;1.00;;;;;;5079943;28;20419;-59
2024/01/28 07:08:26;;;;;;;4.75;2.00;;;1.60;1.00;;;;;;5092001;28;20467;-59
2024/01/28 07:10:54;;;;;;;4.70;1.70;;;1.60;1.00;;;;;;5086006;28;20443;-59
2024/01/28 07:13:21;;;;;;;2.90;1.80;;;1.60;1.00;;;;;;5090190;28;20445;-59
2024/01/28 07:15:47;;;;;;;3.85;1.70;;;1.60;1.00;;;;;;5092725;28;20425;-59
2024/01/28 07:18:16;;;;;;;2.97;1.70;;;1.60;1.00;;;;;;5092992;28;20434;-59
2024/01/28 07:20:44;;;;;;;6.20;2.00;;;1.60;1.00;;;;;;5080199;28;20870;-59
2024/01/28 07:23:11;;;;;;;3.55;1.42;;;1.70;1.00;;;;;;5089490;28;20441;-59
2024/01/28 07:25:38;;;;;;;2.60;1.50;;;1.70;1.00;;;;;;5090550;28;20528;-59
2024/01/28 07:28:06;;;;;;;4.05;1.85;;;1.70;1.00;;;;;;5083693;28;20439;-60
2024/01/28 07:30:33;;;;;;;3.00;1.55;;;1.80;1.00;;;;;;5075059;28;20419;-59
2024/01/28 07:33:00;;;;;;;2.90;1.70;;;1.70;1.00;;;;;;5083413;28;20427;-60
2024/01/28 07:35:29;;;;;;;4.23;1.50;;;1.80;1.00;;;;;;5090698;28;20433;-60
2024/01/28 07:37:56;;;;;;;4.88;1.88;;;1.80;1.00;;;;;;5092713;28;20479;-60
2024/01/28 07:40:23;;;;;;;3.10;1.40;;;1.80;1.00;;;;;;5083474;28;20461;-64
2024/01/28 07:42:50;;;;;;;5.60;1.60;;;1.80;1.00;;;;;;5091355;28;20445;-60
2024/01/28 07:45:19;;;;;;;5.20;2.00;;;1.80;1.00;;;;;;5083494;28;21024;-60
2024/01/28 07:47:46;;;;;;;4.07;1.50;;;1.70;1.00;;;;;;5080556;28;20441;-60
2024/01/28 07:50:13;;;;;;;3.58;1.88;;;1.80;1.00;;;;;;5087739;28;20529;-60
2024/01/28 07:52:43;;;;;;;2.95;1.40;;;1.70;1.00;;;;;;5090500;28;20438;-60
2024/01/28 07:55:11;;;;;;;3.40;1.60;;;1.90;1.00;;;;;;5090843;28;20464;-60
2024/01/28 07:57:38;;;;;;;3.85;1.70;;;1.90;1.00;;;;;;5091308;28;20434;-60
2024/01/28 08:00:06;;;;;;;3.35;1.50;;;1.90;1.00;;;;;;5081815;28;20867;-60
2024/01/28 08:02:33;;;;;;;2.58;1.30;;;2.00;1.00;;;;;;5085230;28;20503;-60
2024/01/28 08:05:00;;;;;;;3.25;1.50;;;2.10;1.00;;;;;;5089294;28;20444;-60
2024/01/28 08:07:27;;;;;;;3.63;1.50;;;2.10;1.00;;;;;;5090164;28;20831;-60
2024/01/28 08:09:55;;;;;;;4.50;1.40;;;2.20;1.00;;;;;;5088063;28;20445;-60
2024/01/28 08:12:22;;;;;;;3.53;1.60;;;2.30;1.00;;;;;;5085988;28;20844;-60
2024/01/28 08:14:49;;;;;;;4.13;1.50;;;2.30;1.00;;;;;;5087738;28;20430;-60
2024/01/28 08:17:16;;;;;;;2.72;1.60;;;2.40;1.00;;;;;;5077489;28;20434;-60
2024/01/28 08:19:43;;;;;;;3.85;1.70;;;2.60;1.00;;;;;;5076190;28;20890;-60
2024/01/28 08:22:11;;;;;;;4.17;1.67;;;2.70;1.00;;;;;;5072473;28;20434;-60
2024/01/28 08:24:38;;;;;;;2.80;1.50;;;2.70;1.00;;;;;;5070234;28;20447;-60
2024/01/28 08:27:07;;;;;;;3.47;1.75;;;2.70;1.00;;;;;;5077762;28;20441;-60
2024/01/28 08:29:34;;;;;;;4.40;1.70;;;2.70;1.00;;;;;;5082108;28;20447;-60
2024/01/28 08:32:01;;;;;;;3.17;1.70;;;2.90;1.00;;;;;;5072511;28;20804;-61
2024/01/28 08:34:28;;;;;;;4.60;1.90;;;2.90;1.00;;;;;;5085008;28;20425;-61
2024/01/28 08:36:55;;;;;;;5.15;1.92;;;3.00;1.00;;;;;;5071450;28;20477;-61
2024/01/28 08:39:22;;;;;;;4.20;2.17;;;3.00;1.00;;;;;;5079540;28;20442;-60
2024/01/28 08:41:49;;;;;;;3.50;1.50;;;3.20;1.00;;;;;;5091565;28;20417;-61
2024/01/28 08:44:18;;;;;;;3.28;1.50;;;3.50;99.90;;;;;;5091272;28;21019;-60
2024/01/28 08:46:46;;;;;;;3.50;1.52;;;3.90;99.90;;;;;;5074134;28;20423;-60
2024/01/28 08:49:13;;;;;;;4.05;2.08;;;4.20;1.00;;;;;;5087582;28;20852;-60
2024/01/28 08:51:41;;;;;;;7.28;2.30;;;3.90;99.90;;;;;;5090817;28;20445;-60
2024/01/28 08:54:08;;;;;;;4.00;2.00;;;3.50;1.00;;;;;;5090191;28;20897;-60
2024/01/28 08:56:35;;;;;;;4.33;1.87;;;3.20;1.00;;;;;;5070606;28;20724;-60
2024/01/28 08:59:02;;;;;;;4.60;1.50;;;3.20;99.90;;;;;;5074393;28;20834;-61
2024/01/28 09:01:30;;;;;;;4.50;1.75;;;3.20;1.00;;;;;;5079590;28;20947;-61
2024/01/28 09:03:57;;;;;;;4.55;2.33;;;3.40;1.00;;;;;;5086741;28;20420;-60
2024/01/28 09:06:24;;;;;;;2.97;2.00;;;3.50;99.90;;;;;;5072042;28;20466;-60
2024/01/28 09:08:51;;;;;;;4.80;2.63;;;3.40;99.90;;;;;;5075170;28;20417;-61
2024/01/28 09:11:18;;;;;;;4.47;1.65;;;3.50;1.00;;;;;;5088899;28;20434;-60
2024/01/28 09:13:45;;;;;;;3.95;2.20;;;3.60;1.00;;;;;;5091207;28;20421;-60
2024/01/28 09:16:12;;;;;;;4.07;2.28;;;3.60;99.90;;;;;;5087133;28;20502;-60
2024/01/28 09:18:42;;;;;;;4.10;2.75;;;3.70;99.90;;;;;;5069193;28;20442;-59
2024/01/28 09:21:10;;;;;;;4.40;2.20;;;3.80;1.00;;;;;;5075786;28;20425;-60
2024/01/28 09:23:37;;;;;;;3.55;2.40;;;3.80;99.90;;;;;;5080900;28;20450;-61
2024/01/28 09:26:05;;;;;;;4.07;2.35;;;3.90;99.90;;;;;;5087363;28;20472;-60
2024/01/28 09:28:32;;;;;;;4.80;2.85;;;3.90;99.90;;;;;;5089383;28;20425;-60
2024/01/28 09:30:59;;;;;;;3.67;2.25;;;4.10;99.90;;;;;;5081709;28;20443;-59
2024/01/28 09:33:26;;;;;;;4.40;2.40;;;4.10;99.90;;;;;;5072163;28;20423;-60
2024/01/28 09:35:55;;;;;;;7.35;3.58;;;4.20;99.90;;;;;;5088482;28;20434;-60
2024/01/28 09:38:22;;;;;;;4.40;2.28;;;4.30;46.10;;;;;;5088725;28;20446;-60
2024/01/28 09:40:50;;;;;;;4.50;2.80;;;4.30;79.70;;;;;;5077272;28;20435;-60
2024/01/28 09:43:25;;;;;;;4.93;2.60;;;4.40;81.50;;;;;;5074641;28;20729;-60
2024/01/28 09:45:52;;;;;;;3.67;2.70;;;4.40;30.10;;;;;;5085998;28;20448;-60
2024/01/28 09:48:20;;;;;;;5.70;2.83;;;4.50;1.00;;;;;;5071990;28;20524;-60
2024/01/28 09:50:47;;;;;;;5.18;2.88;;;4.60;1.00;;;;;;5081037;28;20430;-59
2024/01/28 09:53:17;;;;;;;3.50;2.78;;;4.80;1.00;;;;;;5073099;28;20820;-61
2024/01/28 09:55:44;;;;;;;3.70;2.50;;;4.90;69.80;;;;;;5070219;28;20578;-61
2024/01/28 09:58:11;;;;;;;5.23;2.37;;;5.00;1.00;;;;;;5071156;28;20576;-59
2024/01/28 10:00:38;;;;;;;4.90;2.40;;;5.10;1.00;;;;;;5073441;28;20484;-59
2024/01/28 10:03:05;;;;;;;3.73;2.80;;;5.10;1.00;;;;;;5080797;28;20480;-60
2024/01/28 10:05:33;;;;;;;6.25;3.25;;;5.10;99.90;;;;;;5085947;28;20502;-59
2024/01/28 10:08:01;;;;;;;5.68;2.97;;;5.20;1.00;;;;;;5075047;28;20435;-61
2024/01/28 10:10:32;;;;;;;4.88;3.03;;;5.30;99.90;;;;;;5084162;28;20505;-60
2024/01/28 10:12:59;;;;;;;6.50;2.90;;;5.40;31.50;;;;;;5078304;28;20435;-61
2024/01/28 10:15:27;;;;;;;4.43;2.70;;;5.50;1.00;;;;;;5075265;28;20430;-62
2024/01/28 10:17:54;;;;;;;5.25;2.95;;;5.60;1.00;;;;;;5091227;28;20438;-61
2024/01/28 10:20:23;;;;;;;3.23;2.20;;;5.70;29.30;;;;;;5077945;28;20833;-59
2024/01/28 10:22:51;;;;;;;5.07;2.17;;;5.70;99.90;;;;;;5084468;28;20445;-61
2024/01/28 10:25:19;;;;;;;4.97;1.70;;;5.80;1.00;;;;;;5076592;28;20419;-61
2024/01/28 10:27:49;;;;;;;4.50;1.60;;;5.90;1.00;;;;;;5088669;28;20977;-60
2024/01/28 10:30:18;;;;;;;3.70;1.90;;;6.00;99.90;;;;;;5077038;28;20438;-60
2024/01/28 10:32:46;;;;;;;3.40;1.60;;;6.10;99.90;;;;;;5086519;28;20811;-61
2024/01/28 10:35:16;;;;;;;3.00;1.60;;;6.20;1.00;;;;;;5077232;28;20435;-61
2024/01/28 10:37:44;;;;;;;4.23;1.30;;;6.40;1.00;;;;;;5084945;28;21109;-61
2024/01/28 10:40:12;;;;;;;2.65;1.40;;;6.50;99.90;;;;;;5087449;28;20847;-60
2024/01/28 10:42:40;;;;;;;1.73;1.30;;;6.60;13.90;;;;;;5083497;28;20442;-60
2024/01/28 10:45:10;;;;;;;2.53;1.50;;;6.70;1.00;;;;;;5084544;28;20440;-60
2024/01/28 10:47:40;;;;;;;2.88;1.30;;;6.70;1.00;;;;;;5072754;28;20550;-60
2024/01/28 10:50:09;;;;;;;2.40;1.50;;;6.80;1.00;;;;;;5085342;28;20501;-61
2024/01/28 10:52:38;;;;;;;2.78;1.60;;;7.00;1.00;;;;;;5092304;28;20677;-61
2024/01/28 10:55:06;;;;;;;2.60;1.40;;;7.00;1.00;;;;;;5092247;28;20958;-62
2024/01/28 10:57:34;;;;;;;2.60;1.30;;;7.10;1.00;;;;;;5079195;28;20439;-62
2024/01/28 11:00:03;;;;;;;2.30;1.40;;;7.30;1.00;;;;;;5075682;28;20429;-62
2024/01/28 11:02:32;;;;;;;2.80;1.27;;;7.40;1.00;;;;;;5088294;28;20441;-60
2024/01/28 11:04:59;;;;;;;3.00;1.40;;;7.40;1.00;;;;;;5091061;28;20488;-61
2024/01/28 11:07:28;;;;;;;4.47;1.88;;;7.50;1.00;;;;;;5085820;28;20498;-61
2024/01/28 11:09:55;;;;;;;3.40;2.30;;;7.60;1.00;;;;;;5075300;28;20474;-61
2024/01/28 11:12:23;;;;;;;2.50;1.60;;;7.60;1.00;;;;;;5079418;28;20431;-61
2024/01/28 11:14:53;;;;;;;3.70;2.40;;;7.60;1.00;;;;;;5090015;28;20503;-61
2024/01/28 11:17:22;;;;;;;4.63;2.10;;;7.60;1.00;;;;;;5080281;28;20930;-61
2024/01/28 11:19:53;;;;;;;5.07;2.00;;;7.70;1.00;;;;;;5081968;28;20502;-61
2024/01/28 11:22:20;;;;;;;3.10;1.80;;;7.60;1.00;;;;;;5082706;28;20441;-60
2024/01/28 11:24:53;;;;;;;2.90;1.70;;;7.70;1.00;;;;;;5085470;28;20461;-60
2024/01/28 11:27:20;;;;;;;3.75;2.20;;;7.70;99.90;;;;;;5071783;28;20488;-61
2024/01/28 11:29:48;;;;;;;4.25;2.38;;;7.70;99.90;;;;;;5073491;28;20834;-62
2024/01/28 11:32:16;;;;;;;3.20;1.50;;;7.80;99.90;;;;;;5081708;28;20447;-62
2024/01/28 11:34:45;;;;;;;3.50;1.60;;;7.80;99.90;;;;;;5081583;28;20429;-61
2024/01/28 11:37:17;;;;;;;3.08;1.90;;;7.90;99.90;;;;;;5069699;28;20418;-62
2024/01/28 11:39:48;;;;;;;3.23;1.50;;;7.90;99.90;;;;;;5084980;28;20425;-61
2024/01/28 11:42:15;;;;;;;4.00;1.83;;;8.00;99.90;;;;;;5080374;28;20468;-61
2024/01/28 11:44:43;;;;;;;2.63;1.30;;;8.00;99.90;;;;;;5089761;28;20491;-62
2024/01/28 11:47:13;;;;;;;3.00;1.80;;;8.10;99.90;;;;;;5091126;28;20417;-61
2024/01/28 11:49:40;;;;;;;3.30;1.50;;;8.20;99.90;;;;;;5090344;28;20410;-61
2024/01/28 11:52:08;;;;;;;3.20;1.63;;;8.30;99.90;;;;;;5090690;28;20462;-61
2024/01/28 11:54:37;;;;;;;2.20;1.35;;;8.30;99.90;;;;;;5091764;28;20433;-62
2024/01/28 11:57:06;;;;;;;2.45;1.45;;;8.40;99.90;;;;;;5084432;28;20520;-61
2024/01/28 11:59:35;;;;;;;3.00;1.60;;;8.40;99.90;;;;;;5074656;28;20805;-61
2024/01/28 12:02:02;;;;;;;3.00;1.60;;;8.50;99.90;;;;;;5076256;28;20435;-62
2024/01/28 12:04:30;;;;;;;5.10;1.75;;;8.40;99.90;;;;;;5090714;28;20422;-61
2024/01/28 12:06:57;;;;;;;2.65;1.50;;;8.50;99.90;;;;;;5079199;28;20429;-61
2024/01/28 12:09:24;;;;;;;2.20;1.45;;;8.50;99.90;;;;;;5085925;28;20502;-61
2024/01/28 12:11:53;;;;;;;2.57;1.50;;;8.50;99.90;;;;;;5089173;28;20438;-64
2024/01/28 12:14:20;;;;;;;3.30;1.50;;;8.60;99.90;;;;;;5081589;28;20595;-62
2024/01/28 12:16:47;;;;;;;3.45;1.70;;;8.70;99.90;;;;;;5080337;28;20871;-62
2024/01/28 12:19:14;;;;;;;2.80;1.70;;;8.80;99.90;;;;;;5090024;28;20422;-62
2024/01/28 12:21:42;;;;;;;2.50;1.50;;;8.90;99.90;;;;;;5081456;28;20431;-63
2024/01/28 12:24:12;;;;;;;4.07;1.40;;;9.00;99.90;;;;;;5073457;28;20923;-63
2024/01/28 12:26:43;;;;;;;2.38;1.30;;;9.00;99.90;;;;;;5084042;28;20430;-63
2024/01/28 12:29:12;;;;;;;2.60;1.50;;;9.10;99.90;;;;;;5074231;28;20427;-61
2024/01/28 12:31:39;;;;;;;2.67;1.25;;;9.20;99.90;;;;;;5073599;28;20418;-61
2024/01/28 12:34:15;;;;;;;1.80;1.30;;;9.30;95.20;;;;;;5078583;28;20445;-61
2024/01/28 12:36:42;;;;;;;2.40;1.20;;;9.30;46.70;;;;;;5087029;28;20770;-62
2024/01/28 12:39:09;;;;;;;3.13;1.40;;;9.50;23.60;;;;;;5079433;28;20844;-62
2024/01/28 12:41:36;;;;;;;3.00;1.30;;;9.50;7.90;;;;;;5085555;28;20446;-62
2024/01/28 12:44:04;;;;;;;3.13;1.25;;;9.50;11.90;;;;;;5080486;28;20833;-62
2024/01/28 12:46:33;;;;;;;2.72;1.30;;;9.60;14.60;;;;;;5087892;28;20983;-62
2024/01/28 12:49:00;;;;;;;2.40;1.40;;;9.60;24.70;;;;;;5049554;28;20472;-62
2024/01/28 12:51:27;;;;;;;1.70;1.20;;;9.60;34.30;;;;;;5049003;28;20440;-62
2024/01/28 12:53:55;;;;;;;3.83;1.80;;;9.60;32.60;;;;;;5049294;28;20445;-62
2024/01/28 12:56:22;;;;;;;3.58;1.23;;;9.60;35.60;;;;;;5045366;28;20843;-62
2024/01/28 12:58:49;;;;;;;3.13;1.55;;;9.70;21.30;;;;;;5045598;28;20800;-62
2024/01/28 13:01:16;;;;;;;2.35;1.25;;;9.70;26.50;;;;;;5049952;28;20413;-62
2024/01/28 13:03:45;;;;;;;2.85;1.50;;;9.70;29.70;;;;;;5047206;28;20424;-62
2024/01/28 13:06:12;;;;;;;4.10;1.30;;;9.60;26.80;;;;;;5047151;28;20417;-63
2024/01/28 13:08:40;;;;;;;3.03;1.30;;;9.70;25.20;;;;;;5048813;28;20433;-62